Time;durP1;ratioP1;P1;durP2;ratioP2;P2;SDS_P1;SDS_P2;PMS_P1;PMS_P2;Temp;Humidity;BMP_temperature;BMP_pressure;BME280_temperature;BME280_humidity;BME280_pressure;Samples;Min_cycle;Max_cycle;Signal;HPM_P1;HPM_P2
2023/01/06 00:01:18;;;;;;;12.02;8.52;;;;;;;;;;10307033;28;20073;-62
2023/01/06 00:06:17;;;;;;;13.45;10.32;;;;;;;;;;10300918;28;20067;-62
2023/01/06 00:11:15;;;;;;;16.13;11.43;;;;;;;;;;10310159;28;20461;-62
2023/01/06 00:16:17;;;;;;;10.25;7.88;;;;;;;;;;10309270;28;20142;-62
2023/01/06 00:21:15;;;;;;;11.65;9.05;;;;;;;;;;10296266;28;20366;-62
2023/01/06 00:26:14;;;;;;;12.13;9.60;;;;;;;;;;10309789;28;20055;-62
2023/01/06 00:31:16;;;;;;;9.38;8.40;;;;;;;;;;10309055;28;20075;-61
2023/01/06 00:36:15;;;;;;;10.70;7.78;;;;;;;;;;10308401;28;20079;-61
2023/01/06 00:46:33;;;;;;;8.93;7.30;;;;;;;;;;10309177;28;20091;-62
2023/01/06 00:51:31;;;;;;;10.05;8.55;;;;;;;;;;10304035;28;20101;-62
2023/01/06 00:56:29;;;;;;;9.70;8.35;;;;;;;;;;10284681;28;20190;-62
2023/01/06 01:01:27;;;;;;;12.43;8.35;;;;;;;;;;10308576;28;20040;-62
2023/01/06 01:06:27;;;;;;;10.88;8.38;;;;;;;;;;10307279;28;20036;-62
2023/01/06 01:16:44;;;;;;;11.40;9.00;;;;;;;;;;10306165;28;20098;-61
2023/01/06 01:21:43;;;;;;;9.35;7.70;;;;;;;;;;10304752;28;20051;-62
2023/01/06 01:26:41;;;;;;;11.48;8.85;;;;;;;;;;10294407;28;20044;-62
2023/01/06 01:31:40;;;;;;;9.20;8.18;;;;;;;;;;10306185;28;20072;-62
2023/01/06 01:36:39;;;;;;;9.15;8.25;;;;;;;;;;10306198;28;20140;-62
2023/01/06 01:41:39;;;;;;;10.07;7.95;;;;;;;;;;10294125;28;20093;-62
2023/01/06 01:46:39;;;;;;;8.93;7.90;;;;;;;;;;10304454;28;20051;-62
2023/01/06 01:51:39;;;;;;;12.20;8.70;;;;;;;;;;10306144;28;20044;-62
2023/01/06 01:56:41;;;;;;;8.13;7.15;;;;;;;;;;10307108;28;20079;-61
2023/01/06 02:01:40;;;;;;;10.25;7.88;;;;;;;;;;10304165;28;20143;-62
2023/01/06 02:06:40;;;;;;;11.48;8.25;;;;;;;;;;10306975;28;20095;-62
2023/01/06 02:11:41;;;;;;;11.30;8.60;;;;;;;;;;10304503;28;20056;-62
2023/01/06 02:16:48;;;;;;;11.88;10.02;;;;;;;;;;10291416;28;20533;-62
2023/01/06 02:21:54;;;;;;;11.07;8.18;;;;;;;;;;10306625;28;20075;-61
2023/01/06 02:27:10;;;;;;;10.57;8.57;;;;;;;;;;10292158;28;20473;-62
2023/01/06 02:32:17;;;;;;;14.35;10.77;;;;;;;;;;10292691;28;20055;-62
2023/01/06 02:37:22;;;;;;;14.02;9.43;;;;;;;;;;10306910;28;20075;-62
2023/01/06 02:42:24;;;;;;;14.40;10.25;;;;;;;;;;10303946;28;20446;-62
2023/01/06 02:47:30;;;;;;;14.20;9.43;;;;;;;;;;10314009;28;20067;-62
2023/01/06 02:52:31;;;;;;;9.63;8.48;;;;;;;;;;10314401;28;20063;-62
2023/01/06 02:57:36;;;;;;;9.90;8.75;;;;;;;;;;10312580;28;20052;-61
2023/01/06 03:02:37;;;;;;;8.73;7.50;;;;;;;;;;10311187;28;20052;-62
2023/01/06 03:07:37;;;;;;;11.98;9.20;;;;;;;;;;10313022;28;20048;-61
2023/01/06 03:12:40;;;;;;;10.02;8.02;;;;;;;;;;10310784;28;20100;-62
2023/01/06 03:17:40;;;;;;;10.40;7.85;;;;;;;;;;10309868;28;20080;-62
2023/01/06 03:22:39;;;;;;;9.40;7.93;;;;;;;;;;10310472;28;20366;-62
2023/01/06 03:27:38;;;;;;;9.55;7.28;;;;;;;;;;10287066;28;20366;-62
2023/01/06 03:32:43;;;;;;;9.27;7.20;;;;;;;;;;10310530;28;20585;-62
2023/01/06 03:37:49;;;;;;;7.50;6.57;;;;;;;;;;10310240;28;20151;-62
2023/01/06 03:48:11;;;;;;;9.07;6.80;;;;;;;;;;10308775;28;20040;-61
2023/01/06 03:53:17;;;;;;;12.40;9.95;;;;;;;;;;10308858;28;20059;-62
2023/01/06 03:58:19;;;;;;;16.25;11.75;;;;;;;;;;10307859;28;20075;-61
2023/01/06 04:03:23;;;;;;;26.48;16.77;;;;;;;;;;10308794;28;20040;-61
2023/01/06 04:08:23;;;;;;;11.75;8.85;;;;;;;;;;10307933;28;20335;-61
2023/01/06 04:13:22;;;;;;;12.10;9.23;;;;;;;;;;10307575;28;20151;-61
2023/01/06 04:18:21;;;;;;;10.77;8.35;;;;;;;;;;10306962;28;20084;-61
2023/01/06 04:23:20;;;;;;;13.20;8.38;;;;;;;;;;10307913;28;20370;-62
2023/01/06 04:28:19;;;;;;;10.07;7.40;;;;;;;;;;10308337;28;20063;-62
2023/01/06 04:33:21;;;;;;;12.57;9.02;;;;;;;;;;10290911;28;20048;-60
2023/01/06 04:38:20;;;;;;;24.65;10.70;;;;;;;;;;10306850;28;20456;-60
2023/01/06 04:43:20;;;;;;;9.30;6.82;;;;;;;;;;10308315;28;20451;-61
2023/01/06 04:48:18;;;;;;;6.97;6.28;;;;;;;;;;10294527;28;20044;-61
2023/01/06 04:53:16;;;;;;;9.20;6.00;;;;;;;;;;10294011;28;20158;-61
2023/01/06 04:58:14;;;;;;;9.77;5.82;;;;;;;;;;10308689;28;20064;-61
2023/01/06 05:03:14;;;;;;;9.65;6.97;;;;;;;;;;10294111;28;20092;-61
2023/01/06 05:08:12;;;;;;;10.02;7.15;;;;;;;;;;10307857;28;20169;-62
2023/01/06 05:13:10;;;;;;;11.20;6.60;;;;;;;;;;10287479;28;20075;-62
2023/01/06 05:18:09;;;;;;;9.25;7.00;;;;;;;;;;10308010;28;20044;-62
2023/01/06 05:23:08;;;;;;;6.60;4.88;;;;;;;;;;10283597;28;20057;-62
2023/01/06 05:28:06;;;;;;;8.80;6.80;;;;;;;;;;10272946;28;20053;-62
2023/01/06 05:33:04;;;;;;;10.82;8.98;;;;;;;;;;10292010;28;20347;-62
2023/01/06 05:38:03;;;;;;;14.00;8.10;;;;;;;;;;10273605;28;20163;-61
2023/01/06 05:43:02;;;;;;;10.30;8.43;;;;;;;;;;10308840;28;20490;-63
2023/01/06 05:48:01;;;;;;;9.40;7.90;;;;;;;;;;10283476;28;20485;-61
2023/01/06 05:52:59;;;;;;;11.50;9.02;;;;;;;;;;10308238;28;20044;-62
2023/01/06 05:57:57;;;;;;;13.70;9.20;;;;;;;;;;10289867;28;20122;-62
2023/01/06 06:02:57;;;;;;;18.45;12.23;;;;;;;;;;10274404;28;20069;-62
2023/01/06 06:07:56;;;;;;;9.57;8.15;;;;;;;;;;10265241;28;20033;-63
2023/01/06 06:12:54;;;;;;;10.63;7.93;;;;;;;;;;10277476;28;20108;-62
2023/01/06 06:17:52;;;;;;;13.18;9.30;;;;;;;;;;10286208;28;20415;-62
2023/01/06 06:22:52;;;;;;;9.55;6.65;;;;;;;;;;10266056;28;20120;-62
2023/01/06 06:27:50;;;;;;;8.40;7.20;;;;;;;;;;10280555;28;20076;-62
2023/01/06 06:32:48;;;;;;;11.52;7.70;;;;;;;;;;10302080;28;20126;-62
2023/01/06 06:37:46;;;;;;;14.07;9.55;;;;;;;;;;10265171;28;20494;-62
2023/01/06 06:42:50;;;;;;;11.00;9.23;;;;;;;;;;10264500;28;20041;-61
2023/01/06 06:47:48;;;;;;;20.20;16.60;;;;;;;;;;10264889;28;20427;-61
2023/01/06 06:52:46;;;;;;;11.30;10.05;;;;;;;;;;10264051;28;20123;-61
2023/01/06 06:57:46;;;;;;;7.88;6.75;;;;;;;;;;10271815;28;20079;-61
2023/01/06 07:02:47;;;;;;;9.70;6.90;;;;;;;;;;10278454;28;20051;-61
2023/01/06 07:07:45;;;;;;;9.95;7.72;;;;;;;;;;10269042;28;20458;-61
2023/01/06 07:12:43;;;;;;;12.45;8.23;;;;;;;;;;10265227;28;20072;-62
2023/01/06 07:17:43;;;;;;;10.35;8.23;;;;;;;;;;10262020;28;20080;-62
2023/01/06 07:22:41;;;;;;;13.43;9.35;;;;;;;;;;10258442;28;20064;-61
2023/01/06 07:27:39;;;;;;;10.73;8.82;;;;;;;;;;10262062;28;20061;-61
2023/01/06 07:32:37;;;;;;;8.55;7.22;;;;;;;;;;10282201;28;20091;-62
2023/01/06 07:37:37;;;;;;;11.85;9.50;;;;;;;;;;10273685;28;20497;-60
2023/01/06 07:42:35;;;;;;;46.28;29.02;;;;;;;;;;10279018;28;20071;-61
2023/01/06 07:47:33;;;;;;;9.52;8.27;;;;;;;;;;10275411;28;20155;-62
2023/01/06 07:52:32;;;;;;;10.40;6.95;;;;;;;;;;10291057;28;20080;-62
2023/01/06 07:57:31;;;;;;;9.23;5.55;;;;;;;;;;10267805;28;20091;-61
2023/01/06 08:02:29;;;;;;;10.10;8.18;;;;;;;;;;10306796;28;20064;-61
2023/01/06 08:07:28;;;;;;;7.30;5.65;;;;;;;;;;10307553;28;20079;-62
2023/01/06 08:12:26;;;;;;;6.60;5.05;;;;;;;;;;10306839;28;21470;-62
2023/01/06 08:17:25;;;;;;;8.27;4.22;;;;;;;;;;10307927;28;20110;-62
2023/01/06 08:22:24;;;;;;;7.72;4.70;;;;;;;;;;10309933;28;20108;-62
2023/01/06 08:27:23;;;;;;;6.82;4.93;;;;;;;;;;10292237;28;20037;-61
2023/01/06 08:32:21;;;;;;;5.68;3.92;;;;;;;;;;10270862;28;20045;-62
2023/01/06 08:37:21;;;;;;;5.47;4.35;;;;;;;;;;10279379;28;20076;-63
2023/01/06 08:42:19;;;;;;;7.82;5.30;;;;;;;;;;10297885;28;20032;-62
2023/01/06 08:47:17;;;;;;;6.80;5.20;;;;;;;;;;10269349;28;20041;-62
2023/01/06 08:52:15;;;;;;;7.40;4.68;;;;;;;;;;10261824;28;20076;-62
2023/01/06 08:57:15;;;;;;;9.43;6.10;;;;;;;;;;10301290;28;20610;-61
2023/01/06 09:02:13;;;;;;;10.02;5.55;;;;;;;;;;10308214;28;20193;-62
2023/01/06 09:07:12;;;;;;;6.25;4.72;;;;;;;;;;10308814;28;20123;-62
2023/01/06 09:12:10;;;;;;;5.18;4.30;;;;;;;;;;10309129;28;20074;-62
2023/01/06 09:17:09;;;;;;;6.15;4.30;;;;;;;;;;10306919;28;20500;-62
2023/01/06 09:22:07;;;;;;;7.18;5.32;;;;;;;;;;10310192;28;20048;-62
2023/01/06 09:27:06;;;;;;;8.02;5.32;;;;;;;;;;10310042;28;20044;-62
2023/01/06 09:32:04;;;;;;;7.20;4.38;;;;;;;;;;10307073;28;20036;-62
2023/01/06 09:37:03;;;;;;;7.60;3.47;;;;;;;;;;10298516;28;20071;-62
2023/01/06 09:42:15;;;;;;;5.68;3.78;;;;;;;;;;10308585;28;20041;-63
2023/01/06 09:47:16;;;;;;;7.40;4.35;;;;;;;;;;10308744;28;20041;-62
2023/01/06 09:52:20;;;;;;;11.48;4.70;;;;;;;;;;10294187;28;20462;-63
2023/01/06 09:57:22;;;;;;;7.70;5.55;;;;;;;;;;10274923;28;20466;-62
2023/01/06 10:02:23;;;;;;;7.80;5.05;;;;;;;;;;10279392;28;20068;-62
2023/01/06 10:07:27;;;;;;;7.50;4.75;;;;;;;;;;10264271;28;20076;-62
2023/01/06 10:12:31;;;;;;;6.83;5.07;;;;;;;;;;10266687;28;20068;-63
2023/01/06 10:17:47;;;;;;;6.97;4.45;;;;;;;;;;10266634;28;20473;-62
2023/01/06 10:22:50;;;;;;;6.32;5.40;;;;;;;;;;10266388;28;20087;-62
2023/01/06 10:27:49;;;;;;;6.82;4.90;;;;;;;;;;10265781;28;20083;-62
2023/01/06 10:32:49;;;;;;;4.40;3.50;;;;;;;;;;10274064;28;20060;-63
2023/01/06 10:37:50;;;;;;;4.97;3.75;;;;;;;;;;10293177;28;20124;-62
2023/01/06 10:42:56;;;;;;;7.95;4.88;;;;;;;;;;10274082;28;20065;-62
2023/01/06 10:47:55;;;;;;;11.85;4.30;;;;;;;;;;10265519;28;20044;-62
2023/01/06 10:52:54;;;;;;;5.47;4.70;;;;;;;;;;10266023;28;20080;-64
2023/01/06 10:57:54;;;;;;;3.58;3.22;;;;;;;;;;10293037;28;20072;-63
2023/01/06 11:02:53;;;;;;;7.03;6.07;;;;;;;;;;10295071;28;20449;-63
2023/01/06 11:08:06;;;;;;;5.88;4.53;;;;;;;;;;10284255;28;20061;-63
2023/01/06 11:13:05;;;;;;;4.70;4.07;;;;;;;;;;10275600;28;20069;-63
2023/01/06 11:18:04;;;;;;;5.68;3.28;;;;;;;;;;10275511;28;20064;-63
2023/01/06 11:23:20;;;;;;;10.00;3.13;;;;;;;;;;10291198;28;20473;-63
2023/01/06 11:28:19;;;;;;;10.45;4.28;;;;;;;;;;10272151;28;20036;-64
2023/01/06 11:33:18;;;;;;;7.10;4.88;;;;;;;;;;10288953;28;20071;-63
2023/01/06 11:38:20;;;;;;;8.45;4.95;;;;;;;;;;10300016;28;20083;-63
2023/01/06 11:43:22;;;;;;;6.18;4.22;;;;;;;;;;10282004;28;20129;-62
2023/01/06 11:48:22;;;;;;;12.75;7.53;;;;;;;;;;10276056;28;20474;-63
2023/01/06 11:53:23;;;;;;;22.13;13.88;;;;;;;;;;10295316;28;20135;-63
2023/01/06 11:58:26;;;;;;;9.38;5.47;;;;;;;;;;10301280;28;20549;-62
2023/01/06 12:03:29;;;;;;;19.40;12.23;;;;;;;;;;10314321;28;20060;-63
2023/01/06 12:08:32;;;;;;;8.48;4.50;;;;;;;;;;10279348;28;20075;-62
2023/01/06 12:13:32;;;;;;;9.18;5.95;;;;;;;;;;10301110;28;20053;-62
2023/01/06 12:18:42;;;;;;;21.80;14.55;;;;;;;;;;10260004;28;20077;-61
2023/01/06 12:23:44;;;;;;;15.27;9.10;;;;;;;;;;10280199;28;20040;-62
2023/01/06 12:28:44;;;;;;;24.65;9.57;;;;;;;;;;10271759;28;20060;-62
2023/01/06 12:33:45;;;;;;;7.25;3.88;;;;;;;;;;10294853;28;20175;-61
2023/01/06 12:38:49;;;;;;;6.28;3.42;;;;;;;;;;10272361;28;20098;-61
2023/01/06 12:43:52;;;;;;;7.25;3.95;;;;;;;;;;10290042;28;20451;-62
2023/01/06 12:48:52;;;;;;;22.23;12.38;;;;;;;;;;10284630;28;20470;-61
2023/01/06 12:53:54;;;;;;;8.68;4.95;;;;;;;;;;10304247;28;20363;-61
2023/01/06 12:58:58;;;;;;;9.88;6.45;;;;;;;;;;10294757;28;20167;-61
2023/01/06 13:04:07;;;;;;;7.80;5.75;;;;;;;;;;10272056;28;20379;-62
2023/01/06 13:09:19;;;;;;;15.15;9.10;;;;;;;;;;10257612;28;20068;-62
2023/01/06 13:14:21;;;;;;;7.00;4.07;;;;;;;;;;10265980;28;20160;-61
2023/01/06 13:19:33;;;;;;;8.68;4.75;;;;;;;;;;10269411;28;20452;-61
2023/01/06 13:24:41;;;;;;;9.85;8.15;;;;;;;;;;10273137;28;20118;-61
2023/01/06 13:29:43;;;;;;;19.20;13.95;;;;;;;;;;10286651;28;20055;-61
2023/01/06 13:34:48;;;;;;;10.90;7.93;;;;;;;;;;10266885;28;20466;-62
2023/01/06 13:39:50;;;;;;;8.00;6.00;;;;;;;;;;10278314;28;20087;-62
2023/01/06 13:44:49;;;;;;;7.55;5.88;;;;;;;;;;10294948;28;20071;-61
2023/01/06 13:49:47;;;;;;;8.45;4.53;;;;;;;;;;10273607;28;20072;-61
2023/01/06 13:55:01;;;;;;;13.27;8.63;;;;;;;;;;10269641;28;20052;-62
2023/01/06 14:00:16;;;;;;;9.32;4.95;;;;;;;;;;10277847;28;20083;-62
2023/01/06 14:05:30;;;;;;;8.48;6.25;;;;;;;;;;10265081;28;20041;-61
2023/01/06 14:10:32;;;;;;;15.88;13.52;;;;;;;;;;10264296;28;20517;-62
2023/01/06 14:15:31;;;;;;;18.80;16.67;;;;;;;;;;10277306;28;20769;-62
2023/01/06 14:20:30;;;;;;;21.42;19.23;;;;;;;;;;10292515;28;20167;-61
2023/01/06 14:25:29;;;;;;;26.92;21.27;;;;;;;;;;10273005;28;20072;-62
2023/01/06 14:30:30;;;;;;;30.02;23.42;;;;;;;;;;10265885;28;20079;-62
2023/01/06 14:35:30;;;;;;;40.85;33.03;;;;;;;;;;10273872;28;20182;-61
2023/01/06 14:40:29;;;;;;;96.45;69.32;;;;;;;;;;10268451;28;20454;-62
2023/01/06 14:45:30;;;;;;;42.95;37.70;;;;;;;;;;10275961;28;20068;-62
2023/01/06 14:50:29;;;;;;;37.03;24.25;;;;;;;;;;10280718;28;20500;-62
2023/01/06 14:55:46;;;;;;;29.73;23.10;;;;;;;;;;10276648;28;20083;-62
2023/01/06 15:00:46;;;;;;;40.72;24.88;;;;;;;;;;10307068;28;20330;-61
2023/01/06 15:05:44;;;;;;;24.63;17.67;;;;;;;;;;10316015;28;20514;-62
2023/01/06 15:10:43;;;;;;;8.00;7.03;;;;;;;;;;10276122;28;20068;-62
2023/01/06 15:15:42;;;;;;;10.05;7.40;;;;;;;;;;10300477;28;20132;-63
2023/01/06 15:20:43;;;;;;;21.60;16.95;;;;;;;;;;10307549;28;20114;-62
2023/01/06 15:25:42;;;;;;;20.98;15.55;;;;;;;;;;10270883;28;20072;-63
2023/01/06 15:30:49;;;;;;;27.27;18.83;;;;;;;;;;10280474;28;20634;-63
2023/01/06 15:35:49;;;;;;;41.95;33.83;;;;;;;;;;10280140;28;20154;-62
2023/01/06 15:40:48;;;;;;;30.63;24.48;;;;;;;;;;10302013;28;20073;-62
2023/01/06 15:45:55;;;;;;;23.13;15.50;;;;;;;;;;10305170;28;20043;-63
2023/01/06 15:50:55;;;;;;;31.95;21.55;;;;;;;;;;10297759;28;20069;-62
2023/01/06 15:55:55;;;;;;;24.52;16.30;;;;;;;;;;10296086;28;20459;-63
2023/01/06 16:00:56;;;;;;;27.80;17.10;;;;;;;;;;10282235;28;20073;-63
2023/01/06 16:06:05;;;;;;;22.45;16.45;;;;;;;;;;10281605;28;20069;-63
2023/01/06 16:11:09;;;;;;;39.35;27.17;;;;;;;;;;10272954;28;20037;-63
2023/01/06 16:16:24;;;;;;;28.33;18.05;;;;;;;;;;10282329;28;20076;-64
2023/01/06 16:21:26;;;;;;;34.55;22.15;;;;;;;;;;10278681;28;20153;-63
2023/01/06 16:26:25;;;;;;;13.07;8.82;;;;;;;;;;10279716;28;20073;-64
2023/01/06 16:31:30;;;;;;;18.55;11.70;;;;;;;;;;10310679;28;20040;-63
2023/01/06 16:36:30;;;;;;;20.58;15.25;;;;;;;;;;10294137;28;20598;-62
2023/01/06 16:41:29;;;;;;;6.82;5.60;;;;;;;;;;10281514;28;20067;-63
2023/01/06 16:46:27;;;;;;;8.85;7.90;;;;;;;;;;10282313;28;20094;-63
2023/01/06 16:51:28;;;;;;;11.80;8.93;;;;;;;;;;10281935;28;20730;-63
2023/01/06 16:56:29;;;;;;;13.05;10.23;;;;;;;;;;10277176;28;20076;-63
2023/01/06 17:01:27;;;;;;;14.23;10.82;;;;;;;;;;10284210;28;20064;-64
2023/01/06 17:06:26;;;;;;;19.52;14.30;;;;;;;;;;10286033;28;20056;-63
2023/01/06 17:11:26;;;;;;;45.58;28.95;;;;;;;;;;10268219;28;20080;-63
2023/01/06 17:16:30;;;;;;;30.13;20.60;;;;;;;;;;10276246;28;20071;-62
2023/01/06 17:21:32;;;;;;;18.38;11.98;;;;;;;;;;10273394;28;20081;-62
2023/01/06 17:26:31;;;;;;;14.63;10.73;;;;;;;;;;10285837;28;20068;-61
2023/01/06 17:31:32;;;;;;;20.40;13.32;;;;;;;;;;10266954;28;20463;-63
2023/01/06 17:36:35;;;;;;;14.52;9.63;;;;;;;;;;10293114;28;20068;-64
2023/01/06 17:41:33;;;;;;;22.50;13.68;;;;;;;;;;10296715;28;20148;-63
2023/01/06 17:46:35;;;;;;;14.77;8.95;;;;;;;;;;10273379;28;20489;-63
2023/01/06 17:51:34;;;;;;;19.15;12.57;;;;;;;;;;10265798;28;20069;-63
2023/01/06 17:56:32;;;;;;;27.60;18.75;;;;;;;;;;10266063;28;20075;-62
2023/01/06 18:01:30;;;;;;;21.48;16.30;;;;;;;;;;10283188;28;20069;-62
2023/01/06 18:06:36;;;;;;;16.33;13.90;;;;;;;;;;10265997;28;20426;-62
2023/01/06 18:11:35;;;;;;;14.05;10.75;;;;;;;;;;10269561;28;20472;-63
2023/01/06 18:16:34;;;;;;;14.43;10.80;;;;;;;;;;10260948;28;20057;-62
2023/01/06 18:21:36;;;;;;;18.20;11.10;;;;;;;;;;10257788;28;20399;-63
2023/01/06 18:26:36;;;;;;;22.42;13.30;;;;;;;;;;10270353;28;20056;-62
2023/01/06 18:31:37;;;;;;;20.08;14.50;;;;;;;;;;10269007;28;20072;-62
2023/01/06 18:36:37;;;;;;;28.92;20.38;;;;;;;;;;10269776;28;20071;-62
2023/01/06 18:41:35;;;;;;;23.55;17.08;;;;;;;;;;10266376;28;20099;-61
2023/01/06 18:46:34;;;;;;;22.00;14.05;;;;;;;;;;10265887;28;20060;-63
2023/01/06 18:51:33;;;;;;;9.57;7.82;;;;;;;;;;10270742;28;20075;-62
2023/01/06 18:56:34;;;;;;;9.55;7.85;;;;;;;;;;10264333;28;20064;-62
2023/01/06 19:01:38;;;;;;;13.32;9.10;;;;;;;;;;10272990;28;20554;-62
2023/01/06 19:06:38;;;;;;;16.47;11.33;;;;;;;;;;10261671;28;20076;-62
2023/01/06 19:11:37;;;;;;;12.20;7.95;;;;;;;;;;10260668;28;20144;-62
2023/01/06 19:16:37;;;;;;;16.67;6.80;;;;;;;;;;10260399;28;20502;-61
2023/01/06 19:21:36;;;;;;;8.60;6.57;;;;;;;;;;10263323;28;20079;-62
2023/01/06 19:26:37;;;;;;;6.85;4.68;;;;;;;;;;10264634;28;20068;-62
2023/01/06 19:31:37;;;;;;;7.35;5.03;;;;;;;;;;10279656;28;20071;-63
2023/01/06 19:36:40;;;;;;;9.05;6.32;;;;;;;;;;10270722;28;20037;-61
2023/01/06 19:41:38;;;;;;;10.80;7.47;;;;;;;;;;10290184;28;20068;-62
2023/01/06 19:46:38;;;;;;;11.63;7.10;;;;;;;;;;10267552;28;20056;-60
2023/01/06 19:51:36;;;;;;;10.85;6.57;;;;;;;;;;10266706;28;20057;-61
2023/01/06 19:56:36;;;;;;;7.45;6.20;;;;;;;;;;10276599;28;20097;-62
2023/01/06 20:01:34;;;;;;;21.83;14.82;;;;;;;;;;10295452;28;20096;-62
2023/01/06 20:06:34;;;;;;;27.05;18.13;;;;;;;;;;10287129;28;20132;-61
2023/01/06 20:11:32;;;;;;;24.08;16.65;;;;;;;;;;10284020;28;20157;-61
2023/01/06 20:16:31;;;;;;;9.82;7.25;;;;;;;;;;10298986;28;20468;-61
2023/01/06 20:21:29;;;;;;;24.92;14.10;;;;;;;;;;10288280;28;20087;-60
2023/01/06 20:26:29;;;;;;;13.68;7.68;;;;;;;;;;10291456;28;20414;-62
2023/01/06 20:31:27;;;;;;;21.60;10.15;;;;;;;;;;10290228;28;20083;-61
2023/01/06 20:36:25;;;;;;;23.42;15.65;;;;;;;;;;10300320;28;20076;-62
2023/01/06 20:41:23;;;;;;;12.95;8.63;;;;;;;;;;10301889;28;20072;-62
2023/01/06 20:46:23;;;;;;;16.83;10.43;;;;;;;;;;10294258;28;20647;-62
2023/01/06 20:51:21;;;;;;;16.42;12.63;;;;;;;;;;10294904;28;20071;-62
2023/01/06 20:56:19;;;;;;;19.60;11.55;;;;;;;;;;10286338;28;20064;-62
2023/01/06 21:01:18;;;;;;;23.92;12.07;;;;;;;;;;10294782;28;20083;-62
2023/01/06 21:06:18;;;;;;;26.27;14.82;;;;;;;;;;10274424;28;20065;-61
2023/01/06 21:11:17;;;;;;;17.67;11.13;;;;;;;;;;10263256;28;20388;-62
2023/01/06 21:16:15;;;;;;;17.15;7.70;;;;;;;;;;10276010;28;20040;-61
2023/01/06 21:21:13;;;;;;;14.40;8.32;;;;;;;;;;10262993;28;20159;-61
2023/01/06 21:26:12;;;;;;;32.42;14.90;;;;;;;;;;10264212;28;20401;-62
2023/01/06 21:31:11;;;;;;;29.42;13.25;;;;;;;;;;10262094;28;20463;-62
2023/01/06 21:36:09;;;;;;;13.73;6.55;;;;;;;;;;10263948;28;20107;-61
2023/01/06 21:46:21;;;;;;;7.38;5.60;;;;;;;;;;10261647;28;20095;-61
2023/01/06 21:51:19;;;;;;;18.70;8.00;;;;;;;;;;10272467;28;20116;-62
2023/01/06 21:56:17;;;;;;;15.93;9.80;;;;;;;;;;10293729;28;20059;-62
2023/01/06 22:01:18;;;;;;;6.70;5.85;;;;;;;;;;10273000;28;20033;-61
2023/01/06 22:06:18;;;;;;;8.43;6.38;;;;;;;;;;10265860;28;20125;-62
2023/01/06 22:11:16;;;;;;;8.55;6.90;;;;;;;;;;10264401;28;20479;-61
2023/01/06 22:16:15;;;;;;;7.70;4.53;;;;;;;;;;10265724;28;20117;-62
2023/01/06 22:21:13;;;;;;;4.47;4.00;;;;;;;;;;10263862;28;20068;-61
2023/01/06 22:26:13;;;;;;;8.15;4.28;;;;;;;;;;10266297;28;20079;-61
2023/01/06 22:31:11;;;;;;;6.65;4.43;;;;;;;;;;10266269;28;20065;-62
2023/01/06 22:36:09;;;;;;;5.38;4.25;;;;;;;;;;10283682;28;20037;-62
2023/01/06 22:41:08;;;;;;;4.18;3.78;;;;;;;;;;10276376;28;20155;-62
2023/01/06 22:46:07;;;;;;;6.32;4.13;;;;;;;;;;10292116;28;20061;-61
2023/01/06 22:51:05;;;;;;;4.30;3.35;;;;;;;;;;10302612;28;20052;-61
2023/01/06 22:56:05;;;;;;;6.22;3.60;;;;;;;;;;10305091;28;20071;-62
2023/01/06 23:01:04;;;;;;;4.03;3.33;;;;;;;;;;10303105;28;20160;-61
2023/01/06 23:06:05;;;;;;;9.35;4.30;;;;;;;;;;10312627;28;20072;-61
2023/01/06 23:11:04;;;;;;;6.13;3.72;;;;;;;;;;10313311;28;20052;-61
2023/01/06 23:16:04;;;;;;;5.53;4.38;;;;;;;;;;10311805;28;20429;-61
2023/01/06 23:21:04;;;;;;;6.43;3.70;;;;;;;;;;10274854;28;20088;-61
2023/01/06 23:26:03;;;;;;;4.07;3.67;;;;;;;;;;10300133;28;20048;-60
2023/01/06 23:31:03;;;;;;;6.55;4.15;;;;;;;;;;10278212;28;20090;-60
2023/01/06 23:36:02;;;;;;;5.35;3.75;;;;;;;;;;10274925;28;20064;-58
2023/01/06 23:41:02;;;;;;;5.68;4.07;;;;;;;;;;10285249;28;20041;-59
2023/01/06 23:46:01;;;;;;;5.07;3.90;;;;;;;;;;10274796;28;20164;-59
2023/01/06 23:50:59;;;;;;;5.65;3.80;;;;;;;;;;10294029;28;20037;-59
2023/01/06 23:55:59;;;;;;;7.35;4.47;;;;;;;;;;10316541;28;20048;-59
